sensor_id;sensor_type;location;lat;lon;timestamp;temperature;humidity
10492;DHT22;5293;51.464;-2.566;2023-04-15T00:01:22;6.50;99.90
10492;DHT22;5293;51.464;-2.566;2023-04-15T00:03:50;6.50;99.90
10492;DHT22;5293;51.464;-2.566;2023-04-15T00:06:17;6.50;99.90
10492;DHT22;5293;51.464;-2.566;2023-04-15T00:08:44;6.70;99.90
10492;DHT22;5293;51.464;-2.566;2023-04-15T00:11:10;6.50;99.90
10492;DHT22;5293;51.464;-2.566;2023-04-15T00:13:36;6.40;99.90
10492;DHT22;5293;51.464;-2.566;2023-04-15T00:16:02;6.40;99.90
10492;DHT22;5293;51.464;-2.566;2023-04-15T00:18:27;6.50;99.90
10492;DHT22;5293;51.464;-2.566;2023-04-15T00:20:57;6.50;99.90
10492;DHT22;5293;51.464;-2.566;2023-04-15T00:23:23;6.40;99.90
10492;DHT22;5293;51.464;-2.566;2023-04-15T00:25:49;6.30;99.90
10492;DHT22;5293;51.464;-2.566;2023-04-15T00:28:15;6.30;99.90
10492;DHT22;5293;51.464;-2.566;2023-04-15T00:30:42;6.30;99.90
10492;DHT22;5293;51.464;-2.566;2023-04-15T00:33:07;6.30;99.90
10492;DHT22;5293;51.464;-2.566;2023-04-15T00:35:34;6.30;99.90
10492;DHT22;5293;51.464;-2.566;2023-04-15T00:38:02;6.30;99.90
10492;DHT22;5293;51.464;-2.566;2023-04-15T00:40:27;6.20;99.90
10492;DHT22;5293;51.464;-2.566;2023-04-15T00:42:53;6.30;99.90
10492;DHT22;5293;51.464;-2.566;2023-04-15T00:45:19;6.30;99.90
10492;DHT22;5293;51.464;-2.566;2023-04-15T00:47:45;6.30;99.90
10492;DHT22;5293;51.464;-2.566;2023-04-15T00:50:11;6.30;99.90
10492;DHT22;5293;51.464;-2.566;2023-04-15T00:52:37;6.30;99.90
10492;DHT22;5293;51.464;-2.566;2023-04-15T00:55:04;6.30;99.90
10492;DHT22;5293;51.464;-2.566;2023-04-15T00:57:30;6.30;99.90
10492;DHT22;5293;51.464;-2.566;2023-04-15T00:59:57;6.30;99.90
10492;DHT22;5293;51.464;-2.566;2023-04-15T01:02:23;6.40;99.90
10492;DHT22;5293;51.464;-2.566;2023-04-15T01:04:49;6.40;99.90
10492;DHT22;5293;51.464;-2.566;2023-04-15T01:07:15;6.30;99.90
10492;DHT22;5293;51.464;-2.566;2023-04-15T01:09:41;6.20;99.90
10492;DHT22;5293;51.464;-2.566;2023-04-15T01:12:09;6.30;99.90
10492;DHT22;5293;51.464;-2.566;2023-04-15T01:14:36;6.30;99.90
10492;DHT22;5293;51.464;-2.566;2023-04-15T01:17:02;6.20;99.90
10492;DHT22;5293;51.464;-2.566;2023-04-15T01:19:28;6.20;99.90
10492;DHT22;5293;51.464;-2.566;2023-04-15T01:21:54;6.20;99.90
10492;DHT22;5293;51.464;-2.566;2023-04-15T01:24:19;6.10;99.90
10492;DHT22;5293;51.464;-2.566;2023-04-15T01:26:45;6.20;99.90
10492;DHT22;5293;51.464;-2.566;2023-04-15T01:29:13;6.20;99.90
10492;DHT22;5293;51.464;-2.566;2023-04-15T01:31:39;6.20;99.90
10492;DHT22;5293;51.464;-2.566;2023-04-15T01:34:05;6.20;99.90
10492;DHT22;5293;51.464;-2.566;2023-04-15T01:36:31;6.20;99.90
10492;DHT22;5293;51.464;-2.566;2023-04-15T01:38:57;6.20;99.90
10492;DHT22;5293;51.464;-2.566;2023-04-15T01:41:26;6.20;99.90
10492;DHT22;5293;51.464;-2.566;2023-04-15T01:43:53;6.20;99.90
10492;DHT22;5293;51.464;-2.566;2023-04-15T01:46:19;6.20;99.90
10492;DHT22;5293;51.464;-2.566;2023-04-15T01:48:45;6.20;99.90
10492;DHT22;5293;51.464;-2.566;2023-04-15T01:51:11;6.00;99.90
10492;DHT22;5293;51.464;-2.566;2023-04-15T01:53:37;6.00;99.90
10492;DHT22;5293;51.464;-2.566;2023-04-15T01:56:03;6.00;99.90
10492;DHT22;5293;51.464;-2.566;2023-04-15T01:58:29;6.00;99.90
10492;DHT22;5293;51.464;-2.566;2023-04-15T02:00:54;6.00;99.90
10492;DHT22;5293;51.464;-2.566;2023-04-15T02:03:20;6.10;99.90
10492;DHT22;5293;51.464;-2.566;2023-04-15T02:05:46;6.20;99.90
10492;DHT22;5293;51.464;-2.566;2023-04-15T02:08:11;6.20;99.90
10492;DHT22;5293;51.464;-2.566;2023-04-15T02:10:38;6.20;99.90
10492;DHT22;5293;51.464;-2.566;2023-04-15T02:13:03;6.30;99.90
10492;DHT22;5293;51.464;-2.566;2023-04-15T02:15:29;6.30;99.90
10492;DHT22;5293;51.464;-2.566;2023-04-15T02:17:55;6.30;99.90
10492;DHT22;5293;51.464;-2.566;2023-04-15T02:20:21;6.40;99.90
10492;DHT22;5293;51.464;-2.566;2023-04-15T02:22:47;6.40;99.90
10492;DHT22;5293;51.464;-2.566;2023-04-15T02:25:14;6.40;99.90
10492;DHT22;5293;51.464;-2.566;2023-04-15T02:27:41;6.30;99.90
10492;DHT22;5293;51.464;-2.566;2023-04-15T02:30:07;6.30;99.90
10492;DHT22;5293;51.464;-2.566;2023-04-15T02:32:33;6.30;99.90
10492;DHT22;5293;51.464;-2.566;2023-04-15T02:35:06;6.30;99.90
10492;DHT22;5293;51.464;-2.566;2023-04-15T02:37:33;6.30;99.90
10492;DHT22;5293;51.464;-2.566;2023-04-15T02:40:02;6.20;99.90
10492;DHT22;5293;51.464;-2.566;2023-04-15T02:42:29;6.20;99.90
10492;DHT22;5293;51.464;-2.566;2023-04-15T02:44:56;6.10;99.90
10492;DHT22;5293;51.464;-2.566;2023-04-15T02:47:22;6.20;99.90
10492;DHT22;5293;51.464;-2.566;2023-04-15T02:49:48;6.10;99.90
10492;DHT22;5293;51.464;-2.566;2023-04-15T02:52:13;6.00;99.90
10492;DHT22;5293;51.464;-2.566;2023-04-15T02:54:39;6.10;99.90
10492;DHT22;5293;51.464;-2.566;2023-04-15T02:57:05;6.10;99.90
10492;DHT22;5293;51.464;-2.566;2023-04-15T02:59:31;6.10;99.90
10492;DHT22;5293;51.464;-2.566;2023-04-15T03:01:56;6.10;99.90
10492;DHT22;5293;51.464;-2.566;2023-04-15T03:04:25;6.00;99.90
10492;DHT22;5293;51.464;-2.566;2023-04-15T03:06:51;6.00;99.90
10492;DHT22;5293;51.464;-2.566;2023-04-15T03:09:17;5.90;99.90
10492;DHT22;5293;51.464;-2.566;2023-04-15T03:11:42;5.90;99.90
10492;DHT22;5293;51.464;-2.566;2023-04-15T03:14:08;5.80;99.90
10492;DHT22;5293;51.464;-2.566;2023-04-15T03:16:34;5.80;99.90
10492;DHT22;5293;51.464;-2.566;2023-04-15T03:18:59;5.70;99.90
10492;DHT22;5293;51.464;-2.566;2023-04-15T03:21:25;5.70;99.90
10492;DHT22;5293;51.464;-2.566;2023-04-15T03:23:52;5.70;99.90
10492;DHT22;5293;51.464;-2.566;2023-04-15T03:26:29;5.70;99.90
10492;DHT22;5293;51.464;-2.566;2023-04-15T03:28:55;5.70;99.90
10492;DHT22;5293;51.464;-2.566;2023-04-15T03:31:21;5.60;99.90
10492;DHT22;5293;51.464;-2.566;2023-04-15T03:33:47;5.60;99.90
10492;DHT22;5293;51.464;-2.566;2023-04-15T03:36:13;5.60;99.90
10492;DHT22;5293;51.464;-2.566;2023-04-15T03:38:38;5.60;99.90
10492;DHT22;5293;51.464;-2.566;2023-04-15T03:41:04;5.60;99.90
10492;DHT22;5293;51.464;-2.566;2023-04-15T03:43:30;5.50;99.90
10492;DHT22;5293;51.464;-2.566;2023-04-15T03:45:56;5.50;99.90
10492;DHT22;5293;51.464;-2.566;2023-04-15T03:48:21;5.50;99.90
10492;DHT22;5293;51.464;-2.566;2023-04-15T03:50:47;5.50;99.90
10492;DHT22;5293;51.464;-2.566;2023-04-15T03:53:13;5.50;99.90
10492;DHT22;5293;51.464;-2.566;2023-04-15T03:55:39;5.40;99.90
10492;DHT22;5293;51.464;-2.566;2023-04-15T03:58:04;5.50;99.90
10492;DHT22;5293;51.464;-2.566;2023-04-15T04:00:30;5.50;99.90
10492;DHT22;5293;51.464;-2.566;2023-04-15T04:02:56;5.50;99.90
10492;DHT22;5293;51.464;-2.566;2023-04-15T04:05:22;5.40;99.90
10492;DHT22;5293;51.464;-2.566;2023-04-15T04:07:48;5.30;99.90
10492;DHT22;5293;51.464;-2.566;2023-04-15T04:10:14;5.40;99.90
10492;DHT22;5293;51.464;-2.566;2023-04-15T04:12:39;5.30;99.90
10492;DHT22;5293;51.464;-2.566;2023-04-15T04:15:06;5.40;99.90
10492;DHT22;5293;51.464;-2.566;2023-04-15T04:17:32;5.40;99.90
10492;DHT22;5293;51.464;-2.566;2023-04-15T04:19:58;5.30;99.90
10492;DHT22;5293;51.464;-2.566;2023-04-15T04:22:24;5.30;99.90
10492;DHT22;5293;51.464;-2.566;2023-04-15T04:24:50;5.20;99.90
10492;DHT22;5293;51.464;-2.566;2023-04-15T04:27:16;5.20;99.90
10492;DHT22;5293;51.464;-2.566;2023-04-15T04:29:42;5.30;99.90
10492;DHT22;5293;51.464;-2.566;2023-04-15T04:32:07;5.30;99.90
10492;DHT22;5293;51.464;-2.566;2023-04-15T04:34:33;5.30;99.90
10492;DHT22;5293;51.464;-2.566;2023-04-15T04:36:59;5.30;99.90
10492;DHT22;5293;51.464;-2.566;2023-04-15T04:39:24;5.20;99.90
10492;DHT22;5293;51.464;-2.566;2023-04-15T04:41:50;5.20;99.90
10492;DHT22;5293;51.464;-2.566;2023-04-15T04:44:17;5.20;99.90
10492;DHT22;5293;51.464;-2.566;2023-04-15T04:46:42;5.10;99.90
10492;DHT22;5293;51.464;-2.566;2023-04-15T04:49:08;5.00;99.90
10492;DHT22;5293;51.464;-2.566;2023-04-15T04:51:34;5.20;99.90
10492;DHT22;5293;51.464;-2.566;2023-04-15T04:54:00;5.10;99.90
10492;DHT22;5293;51.464;-2.566;2023-04-15T04:56:25;5.10;99.90
10492;DHT22;5293;51.464;-2.566;2023-04-15T04:58:51;5.10;99.90
10492;DHT22;5293;51.464;-2.566;2023-04-15T05:01:17;5.10;99.90
10492;DHT22;5293;51.464;-2.566;2023-04-15T05:03:43;5.00;99.90
10492;DHT22;5293;51.464;-2.566;2023-04-15T05:06:09;5.00;99.90
10492;DHT22;5293;51.464;-2.566;2023-04-15T05:08:35;5.00;99.90
10492;DHT22;5293;51.464;-2.566;2023-04-15T05:11:01;5.00;99.90
10492;DHT22;5293;51.464;-2.566;2023-04-15T05:13:27;5.00;99.90
10492;DHT22;5293;51.464;-2.566;2023-04-15T05:15:54;4.90;99.90
10492;DHT22;5293;51.464;-2.566;2023-04-15T05:18:20;5.00;99.90
10492;DHT22;5293;51.464;-2.566;2023-04-15T05:20:45;5.00;99.90
10492;DHT22;5293;51.464;-2.566;2023-04-15T05:23:11;4.90;99.90
10492;DHT22;5293;51.464;-2.566;2023-04-15T05:25:37;5.00;99.90
10492;DHT22;5293;51.464;-2.566;2023-04-15T05:28:02;5.00;99.90
10492;DHT22;5293;51.464;-2.566;2023-04-15T05:30:28;5.10;99.90
10492;DHT22;5293;51.464;-2.566;2023-04-15T05:32:54;5.10;99.90
10492;DHT22;5293;51.464;-2.566;2023-04-15T05:35:20;5.10;99.90
10492;DHT22;5293;51.464;-2.566;2023-04-15T05:37:46;5.10;99.90
10492;DHT22;5293;51.464;-2.566;2023-04-15T05:40:12;5.10;99.90
10492;DHT22;5293;51.464;-2.566;2023-04-15T05:42:37;5.10;99.90
10492;DHT22;5293;51.464;-2.566;2023-04-15T05:45:04;5.10;99.90
10492;DHT22;5293;51.464;-2.566;2023-04-15T05:47:36;5.10;99.90
10492;DHT22;5293;51.464;-2.566;2023-04-15T05:50:03;5.10;99.90
10492;DHT22;5293;51.464;-2.566;2023-04-15T05:52:29;5.00;99.90
10492;DHT22;5293;51.464;-2.566;2023-04-15T05:54:55;5.10;99.90
10492;DHT22;5293;51.464;-2.566;2023-04-15T05:57:21;5.20;99.90
10492;DHT22;5293;51.464;-2.566;2023-04-15T05:59:46;5.10;99.90
10492;DHT22;5293;51.464;-2.566;2023-04-15T06:02:12;5.00;99.90
10492;DHT22;5293;51.464;-2.566;2023-04-15T06:04:38;5.10;99.90
10492;DHT22;5293;51.464;-2.566;2023-04-15T06:07:04;5.10;99.90
10492;DHT22;5293;51.464;-2.566;2023-04-15T06:09:29;5.20;99.90
10492;DHT22;5293;51.464;-2.566;2023-04-15T06:11:55;5.30;99.90
10492;DHT22;5293;51.464;-2.566;2023-04-15T06:14:22;5.30;99.90
10492;DHT22;5293;51.464;-2.566;2023-04-15T06:16:47;5.30;99.90
10492;DHT22;5293;51.464;-2.566;2023-04-15T06:19:13;5.30;99.90
10492;DHT22;5293;51.464;-2.566;2023-04-15T06:21:39;5.50;99.90
10492;DHT22;5293;51.464;-2.566;2023-04-15T06:24:05;5.60;99.90
10492;DHT22;5293;51.464;-2.566;2023-04-15T06:26:30;5.70;99.90
10492;DHT22;5293;51.464;-2.566;2023-04-15T06:28:56;5.90;99.90
10492;DHT22;5293;51.464;-2.566;2023-04-15T06:31:22;6.00;99.90
10492;DHT22;5293;51.464;-2.566;2023-04-15T06:33:48;6.10;99.90
10492;DHT22;5293;51.464;-2.566;2023-04-15T06:36:13;6.20;99.90
10492;DHT22;5293;51.464;-2.566;2023-04-15T06:38:39;6.40;99.90
10492;DHT22;5293;51.464;-2.566;2023-04-15T06:41:05;6.50;99.90
10492;DHT22;5293;51.464;-2.566;2023-04-15T06:43:31;6.60;99.90
10492;DHT22;5293;51.464;-2.566;2023-04-15T06:45:56;6.50;99.90
10492;DHT22;5293;51.464;-2.566;2023-04-15T06:48:22;6.60;99.90
10492;DHT22;5293;51.464;-2.566;2023-04-15T06:50:48;6.70;99.90
10492;DHT22;5293;51.464;-2.566;2023-04-15T06:53:14;6.80;99.90
10492;DHT22;5293;51.464;-2.566;2023-04-15T06:55:40;6.80;99.90
10492;DHT22;5293;51.464;-2.566;2023-04-15T06:58:06;6.90;99.90
10492;DHT22;5293;51.464;-2.566;2023-04-15T07:00:32;6.90;99.90
10492;DHT22;5293;51.464;-2.566;2023-04-15T07:02:59;6.90;99.90
10492;DHT22;5293;51.464;-2.566;2023-04-15T07:05:28;7.00;99.90
10492;DHT22;5293;51.464;-2.566;2023-04-15T07:07:54;7.00;99.90
10492;DHT22;5293;51.464;-2.566;2023-04-15T07:10:21;7.00;99.90
10492;DHT22;5293;51.464;-2.566;2023-04-15T07:12:47;7.10;99.90
10492;DHT22;5293;51.464;-2.566;2023-04-15T07:15:13;7.30;99.90
10492;DHT22;5293;51.464;-2.566;2023-04-15T07:17:40;7.50;99.90
10492;DHT22;5293;51.464;-2.566;2023-04-15T07:20:07;7.60;99.90
10492;DHT22;5293;51.464;-2.566;2023-04-15T07:22:33;7.90;99.90
10492;DHT22;5293;51.464;-2.566;2023-04-15T07:24:59;8.00;99.90
10492;DHT22;5293;51.464;-2.566;2023-04-15T07:27:27;8.20;99.90
10492;DHT22;5293;51.464;-2.566;2023-04-15T07:29:53;8.20;99.90
10492;DHT22;5293;51.464;-2.566;2023-04-15T07:32:19;8.30;99.90
10492;DHT22;5293;51.464;-2.566;2023-04-15T07:34:44;8.50;99.90
10492;DHT22;5293;51.464;-2.566;2023-04-15T07:37:10;8.60;99.90
10492;DHT22;5293;51.464;-2.566;2023-04-15T07:39:36;8.60;99.90
10492;DHT22;5293;51.464;-2.566;2023-04-15T07:42:02;8.70;99.90
10492;DHT22;5293;51.464;-2.566;2023-04-15T07:44:28;8.80;99.90
10492;DHT22;5293;51.464;-2.566;2023-04-15T07:46:55;8.90;99.90
10492;DHT22;5293;51.464;-2.566;2023-04-15T07:49:21;8.90;99.90
10492;DHT22;5293;51.464;-2.566;2023-04-15T07:51:47;9.00;99.90
10492;DHT22;5293;51.464;-2.566;2023-04-15T07:54:13;9.00;99.90
10492;DHT22;5293;51.464;-2.566;2023-04-15T07:56:39;9.00;99.90
10492;DHT22;5293;51.464;-2.566;2023-04-15T07:59:05;9.00;99.90
10492;DHT22;5293;51.464;-2.566;2023-04-15T08:01:31;9.20;99.90
10492;DHT22;5293;51.464;-2.566;2023-04-15T08:03:58;9.20;99.90
10492;DHT22;5293;51.464;-2.566;2023-04-15T08:06:24;9.30;99.90
10492;DHT22;5293;51.464;-2.566;2023-04-15T08:08:49;9.20;99.90
10492;DHT22;5293;51.464;-2.566;2023-04-15T08:11:15;9.30;99.90
10492;DHT22;5293;51.464;-2.566;2023-04-15T08:13:41;9.30;99.90
10492;DHT22;5293;51.464;-2.566;2023-04-15T08:18:43;9.30;99.90
10492;DHT22;5293;51.464;-2.566;2023-04-15T08:21:09;9.30;99.90
10492;DHT22;5293;51.464;-2.566;2023-04-15T08:23:35;9.40;99.90
10492;DHT22;5293;51.464;-2.566;2023-04-15T08:26:01;9.50;99.90
10492;DHT22;5293;51.464;-2.566;2023-04-15T08:28:26;9.40;99.90
10492;DHT22;5293;51.464;-2.566;2023-04-15T08:30:52;9.40;99.90
10492;DHT22;5293;51.464;-2.566;2023-04-15T08:33:18;9.40;99.90
10492;DHT22;5293;51.464;-2.566;2023-04-15T08:35:45;9.40;99.90
10492;DHT22;5293;51.464;-2.566;2023-04-15T08:38:10;9.40;99.90
10492;DHT22;5293;51.464;-2.566;2023-04-15T08:40:41;9.50;99.90
10492;DHT22;5293;51.464;-2.566;2023-04-15T08:43:10;9.60;99.90
10492;DHT22;5293;51.464;-2.566;2023-04-15T08:45:40;9.60;99.90
10492;DHT22;5293;51.464;-2.566;2023-04-15T08:48:06;9.70;99.90
10492;DHT22;5293;51.464;-2.566;2023-04-15T08:50:34;9.70;99.90
10492;DHT22;5293;51.464;-2.566;2023-04-15T08:53:00;9.80;99.90
10492;DHT22;5293;51.464;-2.566;2023-04-15T08:55:31;9.80;99.90
10492;DHT22;5293;51.464;-2.566;2023-04-15T08:58:01;9.90;99.90
10492;DHT22;5293;51.464;-2.566;2023-04-15T09:00:28;10.00;99.90
10492;DHT22;5293;51.464;-2.566;2023-04-15T09:02:55;9.90;99.90
10492;DHT22;5293;51.464;-2.566;2023-04-15T09:05:21;9.80;99.90
10492;DHT22;5293;51.464;-2.566;2023-04-15T09:07:49;9.80;99.90
10492;DHT22;5293;51.464;-2.566;2023-04-15T09:10:14;9.90;99.90
10492;DHT22;5293;51.464;-2.566;2023-04-15T09:12:40;10.00;99.90
10492;DHT22;5293;51.464;-2.566;2023-04-15T09:15:07;10.10;99.90
10492;DHT22;5293;51.464;-2.566;2023-04-15T09:17:44;10.30;99.90
10492;DHT22;5293;51.464;-2.566;2023-04-15T09:20:12;10.40;99.90
10492;DHT22;5293;51.464;-2.566;2023-04-15T09:22:40;10.50;99.90
10492;DHT22;5293;51.464;-2.566;2023-04-15T09:25:27;10.40;99.90
10492;DHT22;5293;51.464;-2.566;2023-04-15T09:27:58;10.50;99.90
10492;DHT22;5293;51.464;-2.566;2023-04-15T09:30:28;10.70;99.90
10492;DHT22;5293;51.464;-2.566;2023-04-15T09:35:22;10.40;99.90
10492;DHT22;5293;51.464;-2.566;2023-04-15T09:37:49;10.50;99.90
10492;DHT22;5293;51.464;-2.566;2023-04-15T09:40:36;10.60;99.90
10492;DHT22;5293;51.464;-2.566;2023-04-15T09:43:03;10.80;99.90
10492;DHT22;5293;51.464;-2.566;2023-04-15T09:45:30;10.90;99.90
10492;DHT22;5293;51.464;-2.566;2023-04-15T09:48:21;10.90;99.90
10492;DHT22;5293;51.464;-2.566;2023-04-15T09:50:47;10.90;99.90
10492;DHT22;5293;51.464;-2.566;2023-04-15T09:53:18;10.90;99.90
10492;DHT22;5293;51.464;-2.566;2023-04-15T09:55:51;11.10;99.90
10492;DHT22;5293;51.464;-2.566;2023-04-15T09:58:25;11.00;99.90
10492;DHT22;5293;51.464;-2.566;2023-04-15T10:00:53;11.10;99.90
10492;DHT22;5293;51.464;-2.566;2023-04-15T10:03:19;11.10;99.90
10492;DHT22;5293;51.464;-2.566;2023-04-15T10:05:47;11.10;99.90
10492;DHT22;5293;51.464;-2.566;2023-04-15T10:08:19;11.10;99.90
10492;DHT22;5293;51.464;-2.566;2023-04-15T10:10:46;11.30;99.90
10492;DHT22;5293;51.464;-2.566;2023-04-15T10:13:14;11.50;99.90
10492;DHT22;5293;51.464;-2.566;2023-04-15T10:15:42;11.50;99.90
10492;DHT22;5293;51.464;-2.566;2023-04-15T10:18:09;11.70;99.90
10492;DHT22;5293;51.464;-2.566;2023-04-15T10:20:36;11.70;99.90
10492;DHT22;5293;51.464;-2.566;2023-04-15T10:23:02;11.70;99.90
10492;DHT22;5293;51.464;-2.566;2023-04-15T10:25:28;11.70;99.90
10492;DHT22;5293;51.464;-2.566;2023-04-15T10:27:55;11.70;99.90
10492;DHT22;5293;51.464;-2.566;2023-04-15T10:30:21;11.60;99.90
10492;DHT22;5293;51.464;-2.566;2023-04-15T10:32:48;11.50;99.90
10492;DHT22;5293;51.464;-2.566;2023-04-15T10:35:14;11.60;99.90
10492;DHT22;5293;51.464;-2.566;2023-04-15T10:37:40;11.50;99.90
10492;DHT22;5293;51.464;-2.566;2023-04-15T10:40:26;11.50;99.90
10492;DHT22;5293;51.464;-2.566;2023-04-15T10:42:55;11.40;99.90
10492;DHT22;5293;51.464;-2.566;2023-04-15T10:45:25;11.60;99.90
10492;DHT22;5293;51.464;-2.566;2023-04-15T10:47:55;11.80;99.90
10492;DHT22;5293;51.464;-2.566;2023-04-15T10:50:24;12.00;99.90
10492;DHT22;5293;51.464;-2.566;2023-04-15T10:52:51;12.20;99.90
10492;DHT22;5293;51.464;-2.566;2023-04-15T10:55:30;12.40;99.90
10492;DHT22;5293;51.464;-2.566;2023-04-15T10:58:00;12.30;99.90
10492;DHT22;5293;51.464;-2.566;2023-04-15T11:00:31;12.30;99.90
10492;DHT22;5293;51.464;-2.566;2023-04-15T11:02:58;12.20;99.90
10492;DHT22;5293;51.464;-2.566;2023-04-15T11:08:04;11.90;99.90
10492;DHT22;5293;51.464;-2.566;2023-04-15T11:13:04;11.80;99.90
10492;DHT22;5293;51.464;-2.566;2023-04-15T11:15:34;11.80;99.90
10492;DHT22;5293;51.464;-2.566;2023-04-15T11:20:51;12.30;99.90
10492;DHT22;5293;51.464;-2.566;2023-04-15T11:23:26;12.40;99.90
10492;DHT22;5293;51.464;-2.566;2023-04-15T11:25:54;12.50;99.90
10492;DHT22;5293;51.464;-2.566;2023-04-15T11:28:20;12.30;99.90
10492;DHT22;5293;51.464;-2.566;2023-04-15T11:30:45;12.30;99.90
10492;DHT22;5293;51.464;-2.566;2023-04-15T11:33:11;12.30;99.90
10492;DHT22;5293;51.464;-2.566;2023-04-15T11:35:40;12.30;99.90
10492;DHT22;5293;51.464;-2.566;2023-04-15T11:38:11;12.50;99.90
10492;DHT22;5293;51.464;-2.566;2023-04-15T11:40:38;12.50;99.90
10492;DHT22;5293;51.464;-2.566;2023-04-15T11:45:34;12.30;99.90
10492;DHT22;5293;51.464;-2.566;2023-04-15T11:48:10;12.50;99.90
10492;DHT22;5293;51.464;-2.566;2023-04-15T11:50:38;12.70;99.90
10492;DHT22;5293;51.464;-2.566;2023-04-15T11:53:08;12.80;99.90
10492;DHT22;5293;51.464;-2.566;2023-04-15T11:55:48;12.80;99.90
10492;DHT22;5293;51.464;-2.566;2023-04-15T12:00:57;12.90;99.90
10492;DHT22;5293;51.464;-2.566;2023-04-15T12:06:14;12.80;99.90
10492;DHT22;5293;51.464;-2.566;2023-04-15T12:09:08;12.90;99.90
10492;DHT22;5293;51.464;-2.566;2023-04-15T12:11:44;12.90;99.90
10492;DHT22;5293;51.464;-2.566;2023-04-15T12:16:44;13.20;99.90
10492;DHT22;5293;51.464;-2.566;2023-04-15T12:19:12;13.30;99.90
10492;DHT22;5293;51.464;-2.566;2023-04-15T12:21:41;13.20;99.90
10492;DHT22;5293;51.464;-2.566;2023-04-15T12:24:09;13.20;99.90
10492;DHT22;5293;51.464;-2.566;2023-04-15T12:29:10;13.30;99.90
10492;DHT22;5293;51.464;-2.566;2023-04-15T12:31:45;13.20;99.90
10492;DHT22;5293;51.464;-2.566;2023-04-15T12:34:12;13.10;99.90
10492;DHT22;5293;51.464;-2.566;2023-04-15T12:36:38;13.10;99.90
10492;DHT22;5293;51.464;-2.566;2023-04-15T12:39:04;12.90;99.90
10492;DHT22;5293;51.464;-2.566;2023-04-15T12:41:31;12.90;99.90
10492;DHT22;5293;51.464;-2.566;2023-04-15T12:43:57;13.10;99.90
10492;DHT22;5293;51.464;-2.566;2023-04-15T12:46:24;13.30;99.90
10492;DHT22;5293;51.464;-2.566;2023-04-15T12:48:50;13.40;99.90
10492;DHT22;5293;51.464;-2.566;2023-04-15T12:51:17;13.50;99.90
10492;DHT22;5293;51.464;-2.566;2023-04-15T12:53:43;13.60;99.90
10492;DHT22;5293;51.464;-2.566;2023-04-15T12:56:09;13.60;99.90
10492;DHT22;5293;51.464;-2.566;2023-04-15T12:58:35;13.60;99.90
10492;DHT22;5293;51.464;-2.566;2023-04-15T13:01:01;13.50;99.90
10492;DHT22;5293;51.464;-2.566;2023-04-15T13:03:27;13.40;99.90
10492;DHT22;5293;51.464;-2.566;2023-04-15T13:05:52;13.30;99.90
10492;DHT22;5293;51.464;-2.566;2023-04-15T13:08:18;13.20;99.90
10492;DHT22;5293;51.464;-2.566;2023-04-15T13:10:44;13.30;99.90
10492;DHT22;5293;51.464;-2.566;2023-04-15T13:13:09;13.20;99.90
10492;DHT22;5293;51.464;-2.566;2023-04-15T13:15:35;13.30;99.90
10492;DHT22;5293;51.464;-2.566;2023-04-15T13:18:01;13.40;99.90
10492;DHT22;5293;51.464;-2.566;2023-04-15T13:20:27;13.40;99.90
10492;DHT22;5293;51.464;-2.566;2023-04-15T13:22:53;13.40;99.90
10492;DHT22;5293;51.464;-2.566;2023-04-15T13:25:18;13.40;99.90
10492;DHT22;5293;51.464;-2.566;2023-04-15T13:27:44;13.40;99.90
10492;DHT22;5293;51.464;-2.566;2023-04-15T13:30:11;13.50;99.90
10492;DHT22;5293;51.464;-2.566;2023-04-15T13:32:37;13.50;99.90
10492;DHT22;5293;51.464;-2.566;2023-04-15T13:35:03;13.60;99.90
10492;DHT22;5293;51.464;-2.566;2023-04-15T13:37:30;13.60;99.90
10492;DHT22;5293;51.464;-2.566;2023-04-15T13:39:56;13.70;99.90
10492;DHT22;5293;51.464;-2.566;2023-04-15T13:42:22;13.60;99.90
10492;DHT22;5293;51.464;-2.566;2023-04-15T13:44:51;13.70;99.90
10492;DHT22;5293;51.464;-2.566;2023-04-15T13:47:18;13.80;99.90
10492;DHT22;5293;51.464;-2.566;2023-04-15T13:49:44;14.00;99.90
10492;DHT22;5293;51.464;-2.566;2023-04-15T13:52:11;13.80;99.90
10492;DHT22;5293;51.464;-2.566;2023-04-15T13:54:36;13.70;99.90
10492;DHT22;5293;51.464;-2.566;2023-04-15T13:57:02;13.60;99.90
10492;DHT22;5293;51.464;-2.566;2023-04-15T13:59:28;13.60;99.90
10492;DHT22;5293;51.464;-2.566;2023-04-15T14:01:53;13.60;99.90
10492;DHT22;5293;51.464;-2.566;2023-04-15T14:04:19;13.50;99.90
10492;DHT22;5293;51.464;-2.566;2023-04-15T14:06:45;13.50;99.90
10492;DHT22;5293;51.464;-2.566;2023-04-15T14:09:11;13.50;99.90
10492;DHT22;5293;51.464;-2.566;2023-04-15T14:11:39;13.50;99.90
10492;DHT22;5293;51.464;-2.566;2023-04-15T14:14:05;13.60;99.90
10492;DHT22;5293;51.464;-2.566;2023-04-15T14:16:34;13.60;99.90
10492;DHT22;5293;51.464;-2.566;2023-04-15T14:19:01;13.60;99.90
10492;DHT22;5293;51.464;-2.566;2023-04-15T14:21:26;13.70;99.90
10492;DHT22;5293;51.464;-2.566;2023-04-15T14:23:52;13.70;99.90
10492;DHT22;5293;51.464;-2.566;2023-04-15T14:26:18;13.90;99.90
10492;DHT22;5293;51.464;-2.566;2023-04-15T14:28:44;14.00;99.90
10492;DHT22;5293;51.464;-2.566;2023-04-15T14:31:10;14.00;99.90
10492;DHT22;5293;51.464;-2.566;2023-04-15T14:33:36;14.00;99.90
10492;DHT22;5293;51.464;-2.566;2023-04-15T14:36:02;14.10;99.90
10492;DHT22;5293;51.464;-2.566;2023-04-15T14:38:27;14.20;99.90
10492;DHT22;5293;51.464;-2.566;2023-04-15T14:40:53;14.30;99.90
10492;DHT22;5293;51.464;-2.566;2023-04-15T14:43:20;14.20;99.90
10492;DHT22;5293;51.464;-2.566;2023-04-15T14:45:46;14.30;99.90
10492;DHT22;5293;51.464;-2.566;2023-04-15T14:48:12;14.30;99.90
10492;DHT22;5293;51.464;-2.566;2023-04-15T14:50:38;14.30;99.90
10492;DHT22;5293;51.464;-2.566;2023-04-15T14:53:04;14.30;99.90
10492;DHT22;5293;51.464;-2.566;2023-04-15T14:55:30;14.20;99.90
10492;DHT22;5293;51.464;-2.566;2023-04-15T14:57:55;14.10;99.90
10492;DHT22;5293;51.464;-2.566;2023-04-15T15:00:21;14.10;99.90
10492;DHT22;5293;51.464;-2.566;2023-04-15T15:02:47;14.10;99.90
10492;DHT22;5293;51.464;-2.566;2023-04-15T15:05:12;14.00;99.90
10492;DHT22;5293;51.464;-2.566;2023-04-15T15:07:38;14.00;99.90
10492;DHT22;5293;51.464;-2.566;2023-04-15T15:10:05;14.10;99.90
10492;DHT22;5293;51.464;-2.566;2023-04-15T15:12:32;14.20;99.90
10492;DHT22;5293;51.464;-2.566;2023-04-15T15:14:58;14.00;99.90
10492;DHT22;5293;51.464;-2.566;2023-04-15T15:17:24;14.00;99.90
10492;DHT22;5293;51.464;-2.566;2023-04-15T15:19:50;14.00;99.90
10492;DHT22;5293;51.464;-2.566;2023-04-15T15:22:16;13.90;99.90
10492;DHT22;5293;51.464;-2.566;2023-04-15T15:24:42;14.00;99.90
10492;DHT22;5293;51.464;-2.566;2023-04-15T15:27:08;14.10;99.90
10492;DHT22;5293;51.464;-2.566;2023-04-15T15:29:33;14.00;99.90
10492;DHT22;5293;51.464;-2.566;2023-04-15T15:31:59;14.00;99.90
10492;DHT22;5293;51.464;-2.566;2023-04-15T15:34:25;14.00;99.90
10492;DHT22;5293;51.464;-2.566;2023-04-15T15:36:51;14.00;99.90
10492;DHT22;5293;51.464;-2.566;2023-04-15T15:39:17;14.10;99.90
10492;DHT22;5293;51.464;-2.566;2023-04-15T15:41:43;14.10;99.90
10492;DHT22;5293;51.464;-2.566;2023-04-15T15:44:09;14.10;99.90
10492;DHT22;5293;51.464;-2.566;2023-04-15T15:46:35;14.20;99.90
10492;DHT22;5293;51.464;-2.566;2023-04-15T15:49:01;14.30;99.90
10492;DHT22;5293;51.464;-2.566;2023-04-15T15:51:28;14.30;99.90
10492;DHT22;5293;51.464;-2.566;2023-04-15T15:53:53;14.30;99.90
10492;DHT22;5293;51.464;-2.566;2023-04-15T15:56:19;14.40;99.90
10492;DHT22;5293;51.464;-2.566;2023-04-15T15:58:45;14.40;99.90
10492;DHT22;5293;51.464;-2.566;2023-04-15T16:01:11;14.30;99.90
10492;DHT22;5293;51.464;-2.566;2023-04-15T16:03:36;14.20;99.90